sensor_id;sensor_type;location;lat;lon;timestamp;temperature;humidity
21244;DHT22;10780;50.942;4.028;2023-07-30T00:02:04;16.40;99.90
21244;DHT22;10780;50.942;4.028;2023-07-30T00:04:30;16.40;99.90
21244;DHT22;10780;50.942;4.028;2023-07-30T00:06:55;16.40;99.90
21244;DHT22;10780;50.942;4.028;2023-07-30T00:09:21;16.40;99.90
21244;DHT22;10780;50.942;4.028;2023-07-30T00:11:47;16.40;99.90
21244;DHT22;10780;50.942;4.028;2023-07-30T00:14:12;16.30;99.90
21244;DHT22;10780;50.942;4.028;2023-07-30T00:16:38;16.40;99.90
21244;DHT22;10780;50.942;4.028;2023-07-30T00:19:04;16.40;99.90
21244;DHT22;10780;50.942;4.028;2023-07-30T00:21:29;16.40;99.90
21244;DHT22;10780;50.942;4.028;2023-07-30T00:23:55;16.40;99.90
21244;DHT22;10780;50.942;4.028;2023-07-30T00:26:21;16.30;99.90
21244;DHT22;10780;50.942;4.028;2023-07-30T00:28:46;16.30;99.90
21244;DHT22;10780;50.942;4.028;2023-07-30T00:31:12;16.30;99.90
21244;DHT22;10780;50.942;4.028;2023-07-30T00:33:37;16.30;99.90
21244;DHT22;10780;50.942;4.028;2023-07-30T00:36:03;16.30;99.90
21244;DHT22;10780;50.942;4.028;2023-07-30T00:38:29;16.30;99.90
21244;DHT22;10780;50.942;4.028;2023-07-30T00:40:54;16.40;99.90
21244;DHT22;10780;50.942;4.028;2023-07-30T00:43:21;16.40;99.90
21244;DHT22;10780;50.942;4.028;2023-07-30T00:45:46;16.30;99.90
21244;DHT22;10780;50.942;4.028;2023-07-30T00:48:13;16.30;99.90
21244;DHT22;10780;50.942;4.028;2023-07-30T00:50:40;16.30;99.90
21244;DHT22;10780;50.942;4.028;2023-07-30T00:53:07;16.30;99.90
21244;DHT22;10780;50.942;4.028;2023-07-30T00:55:34;16.20;99.90
21244;DHT22;10780;50.942;4.028;2023-07-30T00:58:01;16.20;99.90
21244;DHT22;10780;50.942;4.028;2023-07-30T01:00:27;16.20;99.90
21244;DHT22;10780;50.942;4.028;2023-07-30T01:02:55;16.20;99.90
21244;DHT22;10780;50.942;4.028;2023-07-30T01:05:21;16.30;99.90
21244;DHT22;10780;50.942;4.028;2023-07-30T01:07:46;16.30;99.90
21244;DHT22;10780;50.942;4.028;2023-07-30T01:10:12;16.40;99.90
21244;DHT22;10780;50.942;4.028;2023-07-30T01:12:38;16.50;99.90
21244;DHT22;10780;50.942;4.028;2023-07-30T01:15:05;16.60;99.90
21244;DHT22;10780;50.942;4.028;2023-07-30T01:17:31;16.60;99.90
21244;DHT22;10780;50.942;4.028;2023-07-30T01:19:57;16.80;99.90
21244;DHT22;10780;50.942;4.028;2023-07-30T01:22:23;16.70;99.90
21244;DHT22;10780;50.942;4.028;2023-07-30T01:24:49;16.70;99.90
21244;DHT22;10780;50.942;4.028;2023-07-30T01:27:26;16.80;99.90
21244;DHT22;10780;50.942;4.028;2023-07-30T01:29:59;16.80;99.90
21244;DHT22;10780;50.942;4.028;2023-07-30T01:32:28;16.70;99.90
21244;DHT22;10780;50.942;4.028;2023-07-30T01:34:57;16.70;99.90
21244;DHT22;10780;50.942;4.028;2023-07-30T01:37:23;16.70;99.90
21244;DHT22;10780;50.942;4.028;2023-07-30T01:39:50;16.60;99.90
21244;DHT22;10780;50.942;4.028;2023-07-30T01:42:16;16.50;99.90
21244;DHT22;10780;50.942;4.028;2023-07-30T01:44:42;16.60;99.90
21244;DHT22;10780;50.942;4.028;2023-07-30T01:47:08;16.60;99.90
21244;DHT22;10780;50.942;4.028;2023-07-30T01:49:33;16.60;99.90
21244;DHT22;10780;50.942;4.028;2023-07-30T01:51:59;16.60;99.90
21244;DHT22;10780;50.942;4.028;2023-07-30T01:54:25;16.50;99.90
21244;DHT22;10780;50.942;4.028;2023-07-30T01:56:51;16.40;99.90
21244;DHT22;10780;50.942;4.028;2023-07-30T01:59:17;16.30;99.90
21244;DHT22;10780;50.942;4.028;2023-07-30T02:01:43;16.30;99.90
21244;DHT22;10780;50.942;4.028;2023-07-30T02:04:08;16.30;99.90
21244;DHT22;10780;50.942;4.028;2023-07-30T02:06:34;16.30;99.90
21244;DHT22;10780;50.942;4.028;2023-07-30T02:09:00;16.30;99.90
21244;DHT22;10780;50.942;4.028;2023-07-30T02:11:25;16.20;99.90
21244;DHT22;10780;50.942;4.028;2023-07-30T02:13:51;16.20;99.90
21244;DHT22;10780;50.942;4.028;2023-07-30T02:16:16;16.20;99.90
21244;DHT22;10780;50.942;4.028;2023-07-30T02:18:42;16.30;99.90
21244;DHT22;10780;50.942;4.028;2023-07-30T02:21:08;16.30;99.90
21244;DHT22;10780;50.942;4.028;2023-07-30T02:23:33;16.30;99.90
21244;DHT22;10780;50.942;4.028;2023-07-30T02:25:59;16.30;99.90
21244;DHT22;10780;50.942;4.028;2023-07-30T02:28:24;16.20;99.90
21244;DHT22;10780;50.942;4.028;2023-07-30T02:30:50;16.20;99.90
21244;DHT22;10780;50.942;4.028;2023-07-30T02:33:15;16.30;99.90
21244;DHT22;10780;50.942;4.028;2023-07-30T02:35:43;16.20;99.90
21244;DHT22;10780;50.942;4.028;2023-07-30T02:38:09;16.20;99.90
21244;DHT22;10780;50.942;4.028;2023-07-30T02:40:35;16.20;99.90
21244;DHT22;10780;50.942;4.028;2023-07-30T02:43:00;16.30;99.90
21244;DHT22;10780;50.942;4.028;2023-07-30T02:45:26;16.30;99.90
21244;DHT22;10780;50.942;4.028;2023-07-30T02:47:52;16.40;99.90
21244;DHT22;10780;50.942;4.028;2023-07-30T02:50:17;16.30;99.90
21244;DHT22;10780;50.942;4.028;2023-07-30T02:52:43;16.20;99.90
21244;DHT22;10780;50.942;4.028;2023-07-30T02:55:09;16.20;99.90
21244;DHT22;10780;50.942;4.028;2023-07-30T02:57:35;16.20;99.90
21244;DHT22;10780;50.942;4.028;2023-07-30T03:00:00;16.20;99.90
21244;DHT22;10780;50.942;4.028;2023-07-30T03:02:26;16.10;99.90
21244;DHT22;10780;50.942;4.028;2023-07-30T03:04:51;16.10;99.90
21244;DHT22;10780;50.942;4.028;2023-07-30T03:07:17;16.10;99.90
21244;DHT22;10780;50.942;4.028;2023-07-30T03:09:44;16.10;99.90
21244;DHT22;10780;50.942;4.028;2023-07-30T03:12:09;16.20;99.90
21244;DHT22;10780;50.942;4.028;2023-07-30T03:14:35;16.20;99.90
21244;DHT22;10780;50.942;4.028;2023-07-30T03:17:00;16.30;99.90
21244;DHT22;10780;50.942;4.028;2023-07-30T03:19:26;16.30;99.90
21244;DHT22;10780;50.942;4.028;2023-07-30T03:21:51;16.20;99.90
21244;DHT22;10780;50.942;4.028;2023-07-30T03:24:17;16.10;99.90
21244;DHT22;10780;50.942;4.028;2023-07-30T03:26:42;16.00;99.90
21244;DHT22;10780;50.942;4.028;2023-07-30T03:29:08;16.00;99.90
21244;DHT22;10780;50.942;4.028;2023-07-30T03:31:34;16.10;99.90
21244;DHT22;10780;50.942;4.028;2023-07-30T03:33:59;16.20;99.90
21244;DHT22;10780;50.942;4.028;2023-07-30T03:36:25;16.20;99.90
21244;DHT22;10780;50.942;4.028;2023-07-30T03:38:51;16.10;99.90
21244;DHT22;10780;50.942;4.028;2023-07-30T03:41:16;16.20;99.90
21244;DHT22;10780;50.942;4.028;2023-07-30T03:43:42;16.20;99.90
21244;DHT22;10780;50.942;4.028;2023-07-30T03:46:07;16.20;99.90
21244;DHT22;10780;50.942;4.028;2023-07-30T03:48:33;16.10;99.90
21244;DHT22;10780;50.942;4.028;2023-07-30T03:50:58;16.10;99.90
21244;DHT22;10780;50.942;4.028;2023-07-30T03:53:24;16.10;99.90
21244;DHT22;10780;50.942;4.028;2023-07-30T03:55:50;16.20;99.90
21244;DHT22;10780;50.942;4.028;2023-07-30T03:58:15;16.10;99.90
21244;DHT22;10780;50.942;4.028;2023-07-30T04:00:41;16.20;99.90
21244;DHT22;10780;50.942;4.028;2023-07-30T04:03:07;16.10;99.90
21244;DHT22;10780;50.942;4.028;2023-07-30T04:05:33;16.10;99.90
21244;DHT22;10780;50.942;4.028;2023-07-30T04:07:58;16.00;99.90
21244;DHT22;10780;50.942;4.028;2023-07-30T04:10:24;16.00;99.90
21244;DHT22;10780;50.942;4.028;2023-07-30T04:12:49;15.90;99.90
21244;DHT22;10780;50.942;4.028;2023-07-30T04:15:16;15.90;99.90
21244;DHT22;10780;50.942;4.028;2023-07-30T04:17:42;16.00;99.90
21244;DHT22;10780;50.942;4.028;2023-07-30T04:20:08;16.00;99.90
21244;DHT22;10780;50.942;4.028;2023-07-30T04:22:37;16.00;99.90
21244;DHT22;10780;50.942;4.028;2023-07-30T04:25:03;16.10;99.90
21244;DHT22;10780;50.942;4.028;2023-07-30T04:27:29;16.10;99.90
21244;DHT22;10780;50.942;4.028;2023-07-30T04:29:54;16.10;99.90
21244;DHT22;10780;50.942;4.028;2023-07-30T04:32:20;16.20;99.90
21244;DHT22;10780;50.942;4.028;2023-07-30T04:34:46;16.30;99.90
21244;DHT22;10780;50.942;4.028;2023-07-30T04:37:11;16.30;99.90
21244;DHT22;10780;50.942;4.028;2023-07-30T04:39:37;16.40;99.90
21244;DHT22;10780;50.942;4.028;2023-07-30T04:42:03;16.40;99.90
21244;DHT22;10780;50.942;4.028;2023-07-30T04:44:29;16.40;99.90
21244;DHT22;10780;50.942;4.028;2023-07-30T04:46:54;16.50;99.90
21244;DHT22;10780;50.942;4.028;2023-07-30T04:49:20;16.60;99.90
21244;DHT22;10780;50.942;4.028;2023-07-30T04:51:46;16.80;99.90
21244;DHT22;10780;50.942;4.028;2023-07-30T04:54:11;16.80;99.90
21244;DHT22;10780;50.942;4.028;2023-07-30T04:56:37;16.80;99.90
21244;DHT22;10780;50.942;4.028;2023-07-30T04:59:03;16.80;99.90
21244;DHT22;10780;50.942;4.028;2023-07-30T05:01:29;16.80;99.90
21244;DHT22;10780;50.942;4.028;2023-07-30T05:03:54;16.80;99.90
21244;DHT22;10780;50.942;4.028;2023-07-30T05:06:20;16.70;99.90
21244;DHT22;10780;50.942;4.028;2023-07-30T05:08:46;16.70;99.90
21244;DHT22;10780;50.942;4.028;2023-07-30T05:11:11;16.80;99.90
21244;DHT22;10780;50.942;4.028;2023-07-30T05:13:37;17.00;99.90
21244;DHT22;10780;50.942;4.028;2023-07-30T05:16:03;16.90;99.90
21244;DHT22;10780;50.942;4.028;2023-07-30T05:18:28;16.90;99.90
21244;DHT22;10780;50.942;4.028;2023-07-30T05:20:54;17.00;99.90
21244;DHT22;10780;50.942;4.028;2023-07-30T05:23:20;17.00;99.90
21244;DHT22;10780;50.942;4.028;2023-07-30T05:25:46;17.00;99.90
21244;DHT22;10780;50.942;4.028;2023-07-30T05:28:12;17.10;99.90
21244;DHT22;10780;50.942;4.028;2023-07-30T05:30:38;17.20;99.90
21244;DHT22;10780;50.942;4.028;2023-07-30T05:33:03;17.30;99.90
21244;DHT22;10780;50.942;4.028;2023-07-30T05:35:29;17.40;99.90
21244;DHT22;10780;50.942;4.028;2023-07-30T05:37:55;17.30;99.90
21244;DHT22;10780;50.942;4.028;2023-07-30T05:40:21;17.40;99.90
21244;DHT22;10780;50.942;4.028;2023-07-30T05:42:47;17.40;99.90
21244;DHT22;10780;50.942;4.028;2023-07-30T05:45:12;17.50;99.90
21244;DHT22;10780;50.942;4.028;2023-07-30T05:47:38;17.60;99.90
21244;DHT22;10780;50.942;4.028;2023-07-30T05:50:04;17.80;99.90
21244;DHT22;10780;50.942;4.028;2023-07-30T05:52:30;17.70;99.90
21244;DHT22;10780;50.942;4.028;2023-07-30T05:54:56;17.60;99.90
21244;DHT22;10780;50.942;4.028;2023-07-30T05:57:21;17.60;99.90
21244;DHT22;10780;50.942;4.028;2023-07-30T05:59:47;17.60;99.90
21244;DHT22;10780;50.942;4.028;2023-07-30T06:02:13;17.50;99.90
21244;DHT22;10780;50.942;4.028;2023-07-30T06:04:38;17.60;99.90
21244;DHT22;10780;50.942;4.028;2023-07-30T06:07:04;17.50;99.90
21244;DHT22;10780;50.942;4.028;2023-07-30T06:09:30;17.50;99.90
21244;DHT22;10780;50.942;4.028;2023-07-30T06:11:58;17.70;99.90
21244;DHT22;10780;50.942;4.028;2023-07-30T06:14:25;17.80;99.90
21244;DHT22;10780;50.942;4.028;2023-07-30T06:16:52;17.90;99.90
21244;DHT22;10780;50.942;4.028;2023-07-30T06:19:17;17.90;99.90
21244;DHT22;10780;50.942;4.028;2023-07-30T06:21:43;18.00;99.90
21244;DHT22;10780;50.942;4.028;2023-07-30T06:24:09;18.10;99.90
21244;DHT22;10780;50.942;4.028;2023-07-30T06:26:34;18.00;99.90
21244;DHT22;10780;50.942;4.028;2023-07-30T06:29:00;18.00;99.90
21244;DHT22;10780;50.942;4.028;2023-07-30T06:31:25;17.90;99.90
21244;DHT22;10780;50.942;4.028;2023-07-30T06:33:51;17.90;99.90
21244;DHT22;10780;50.942;4.028;2023-07-30T06:36:17;17.80;99.90
21244;DHT22;10780;50.942;4.028;2023-07-30T06:38:42;17.80;99.90
21244;DHT22;10780;50.942;4.028;2023-07-30T06:41:08;17.80;99.90
21244;DHT22;10780;50.942;4.028;2023-07-30T06:43:34;18.10;99.90
21244;DHT22;10780;50.942;4.028;2023-07-30T06:46:00;18.10;99.90
21244;DHT22;10780;50.942;4.028;2023-07-30T06:48:25;18.00;99.90
21244;DHT22;10780;50.942;4.028;2023-07-30T06:50:51;18.10;99.90
21244;DHT22;10780;50.942;4.028;2023-07-30T06:53:17;18.40;99.90
21244;DHT22;10780;50.942;4.028;2023-07-30T06:55:42;18.80;99.90
21244;DHT22;10780;50.942;4.028;2023-07-30T06:58:08;18.90;99.90
21244;DHT22;10780;50.942;4.028;2023-07-30T07:00:34;19.20;99.90
21244;DHT22;10780;50.942;4.028;2023-07-30T07:03:00;19.40;99.90
21244;DHT22;10780;50.942;4.028;2023-07-30T07:05:26;19.60;99.90
21244;DHT22;10780;50.942;4.028;2023-07-30T07:07:51;19.70;99.90
21244;DHT22;10780;50.942;4.028;2023-07-30T07:10:17;19.30;99.90
21244;DHT22;10780;50.942;4.028;2023-07-30T07:12:42;19.30;99.90
21244;DHT22;10780;50.942;4.028;2023-07-30T07:15:08;19.40;99.90
21244;DHT22;10780;50.942;4.028;2023-07-30T07:17:34;19.40;99.90
21244;DHT22;10780;50.942;4.028;2023-07-30T07:20:00;19.40;99.90
21244;DHT22;10780;50.942;4.028;2023-07-30T07:22:26;19.30;99.90
21244;DHT22;10780;50.942;4.028;2023-07-30T07:24:52;19.60;99.90
21244;DHT22;10780;50.942;4.028;2023-07-30T07:27:21;19.50;99.90
21244;DHT22;10780;50.942;4.028;2023-07-30T07:29:49;19.50;99.90
21244;DHT22;10780;50.942;4.028;2023-07-30T07:32:15;19.80;99.90
21244;DHT22;10780;50.942;4.028;2023-07-30T07:34:41;20.10;99.90
21244;DHT22;10780;50.942;4.028;2023-07-30T07:37:06;19.80;99.90
21244;DHT22;10780;50.942;4.028;2023-07-30T07:39:33;19.90;99.90
21244;DHT22;10780;50.942;4.028;2023-07-30T07:41:59;20.00;99.90
21244;DHT22;10780;50.942;4.028;2023-07-30T07:44:24;20.00;99.90
21244;DHT22;10780;50.942;4.028;2023-07-30T07:46:50;20.10;99.90
21244;DHT22;10780;50.942;4.028;2023-07-30T07:49:16;19.90;99.90
21244;DHT22;10780;50.942;4.028;2023-07-30T07:51:41;20.20;99.90
21244;DHT22;10780;50.942;4.028;2023-07-30T07:54:07;20.50;99.90
21244;DHT22;10780;50.942;4.028;2023-07-30T07:56:33;20.40;99.90
21244;DHT22;10780;50.942;4.028;2023-07-30T07:58:59;20.50;99.90
21244;DHT22;10780;50.942;4.028;2023-07-30T08:01:24;20.60;99.90
21244;DHT22;10780;50.942;4.028;2023-07-30T08:03:50;20.30;99.90
21244;DHT22;10780;50.942;4.028;2023-07-30T08:06:16;20.10;99.90
21244;DHT22;10780;50.942;4.028;2023-07-30T08:08:42;20.20;99.90
21244;DHT22;10780;50.942;4.028;2023-07-30T08:11:08;20.60;99.90
21244;DHT22;10780;50.942;4.028;2023-07-30T08:13:34;20.50;99.90
21244;DHT22;10780;50.942;4.028;2023-07-30T08:16:01;20.30;99.90
21244;DHT22;10780;50.942;4.028;2023-07-30T08:18:27;20.50;99.90
21244;DHT22;10780;50.942;4.028;2023-07-30T08:20:53;20.60;99.90
21244;DHT22;10780;50.942;4.028;2023-07-30T08:23:18;20.60;99.90
21244;DHT22;10780;50.942;4.028;2023-07-30T08:25:44;20.70;99.90
21244;DHT22;10780;50.942;4.028;2023-07-30T08:28:10;20.60;99.90
21244;DHT22;10780;50.942;4.028;2023-07-30T08:30:35;20.20;99.90
21244;DHT22;10780;50.942;4.028;2023-07-30T08:33:01;19.90;99.90
21244;DHT22;10780;50.942;4.028;2023-07-30T08:35:27;19.80;99.90
21244;DHT22;10780;50.942;4.028;2023-07-30T08:37:52;19.20;99.90
21244;DHT22;10780;50.942;4.028;2023-07-30T08:40:23;18.60;99.90
21244;DHT22;10780;50.942;4.028;2023-07-30T08:42:52;18.20;99.90
21244;DHT22;10780;50.942;4.028;2023-07-30T08:45:18;17.70;99.90
21244;DHT22;10780;50.942;4.028;2023-07-30T08:47:45;17.50;99.90
21244;DHT22;10780;50.942;4.028;2023-07-30T08:50:11;17.10;99.90
21244;DHT22;10780;50.942;4.028;2023-07-30T08:52:36;17.10;99.90
21244;DHT22;10780;50.942;4.028;2023-07-30T08:55:03;17.30;99.90
21244;DHT22;10780;50.942;4.028;2023-07-30T08:57:30;17.60;99.90
21244;DHT22;10780;50.942;4.028;2023-07-30T09:00:06;18.00;99.90
21244;DHT22;10780;50.942;4.028;2023-07-30T09:03:03;18.40;99.90
21244;DHT22;10780;50.942;4.028;2023-07-30T09:05:29;18.70;99.90
21244;DHT22;10780;50.942;4.028;2023-07-30T09:07:55;19.10;99.90
21244;DHT22;10780;50.942;4.028;2023-07-30T09:10:21;19.50;99.90
21244;DHT22;10780;50.942;4.028;2023-07-30T09:12:53;19.70;99.90
21244;DHT22;10780;50.942;4.028;2023-07-30T09:15:34;19.70;99.90
21244;DHT22;10780;50.942;4.028;2023-07-30T09:18:00;19.80;99.90
21244;DHT22;10780;50.942;4.028;2023-07-30T09:20:26;19.90;99.90
21244;DHT22;10780;50.942;4.028;2023-07-30T09:22:55;20.20;99.90
21244;DHT22;10780;50.942;4.028;2023-07-30T09:25:21;20.00;99.90
21244;DHT22;10780;50.942;4.028;2023-07-30T09:27:52;19.40;99.90
21244;DHT22;10780;50.942;4.028;2023-07-30T09:30:25;19.20;99.90
21244;DHT22;10780;50.942;4.028;2023-07-30T09:32:56;19.10;99.90
21244;DHT22;10780;50.942;4.028;2023-07-30T09:35:23;19.10;99.90
21244;DHT22;10780;50.942;4.028;2023-07-30T09:38:00;19.00;99.90
21244;DHT22;10780;50.942;4.028;2023-07-30T09:40:34;19.10;99.90
21244;DHT22;10780;50.942;4.028;2023-07-30T09:43:02;19.10;99.90
21244;DHT22;10780;50.942;4.028;2023-07-30T09:45:28;19.10;99.90
21244;DHT22;10780;50.942;4.028;2023-07-30T09:47:58;19.30;99.90
21244;DHT22;10780;50.942;4.028;2023-07-30T09:50:23;19.40;99.90
21244;DHT22;10780;50.942;4.028;2023-07-30T09:52:50;19.30;99.90
21244;DHT22;10780;50.942;4.028;2023-07-30T09:55:16;19.20;99.90
21244;DHT22;10780;50.942;4.028;2023-07-30T09:57:44;19.20;99.90
21244;DHT22;10780;50.942;4.028;2023-07-30T10:00:10;19.30;99.90
21244;DHT22;10780;50.942;4.028;2023-07-30T10:02:38;19.50;99.90
21244;DHT22;10780;50.942;4.028;2023-07-30T10:05:10;19.80;99.90
21244;DHT22;10780;50.942;4.028;2023-07-30T10:07:40;20.20;99.90
21244;DHT22;10780;50.942;4.028;2023-07-30T10:10:08;20.60;99.90
21244;DHT22;10780;50.942;4.028;2023-07-30T10:12:36;20.90;99.90
21244;DHT22;10780;50.942;4.028;2023-07-30T10:15:02;21.10;99.90
21244;DHT22;10780;50.942;4.028;2023-07-30T10:17:28;21.10;99.90
21244;DHT22;10780;50.942;4.028;2023-07-30T10:19:54;21.00;99.90
21244;DHT22;10780;50.942;4.028;2023-07-30T10:25:00;20.90;99.90
21244;DHT22;10780;50.942;4.028;2023-07-30T10:27:27;20.70;99.90
21244;DHT22;10780;50.942;4.028;2023-07-30T10:30:14;20.70;99.90
21244;DHT22;10780;50.942;4.028;2023-07-30T10:32:41;20.80;99.90
21244;DHT22;10780;50.942;4.028;2023-07-30T10:35:07;21.00;99.90
21244;DHT22;10780;50.942;4.028;2023-07-30T10:37:34;21.20;99.90
21244;DHT22;10780;50.942;4.028;2023-07-30T10:39:59;21.20;99.90
21244;DHT22;10780;50.942;4.028;2023-07-30T10:42:33;21.10;99.90
21244;DHT22;10780;50.942;4.028;2023-07-30T10:44:59;20.90;99.90
21244;DHT22;10780;50.942;4.028;2023-07-30T10:47:27;20.90;99.90
21244;DHT22;10780;50.942;4.028;2023-07-30T10:49:53;21.10;99.90
21244;DHT22;10780;50.942;4.028;2023-07-30T10:52:24;21.00;99.90
21244;DHT22;10780;50.942;4.028;2023-07-30T10:54:59;20.80;99.90
21244;DHT22;10780;50.942;4.028;2023-07-30T10:57:30;21.00;99.90
21244;DHT22;10780;50.942;4.028;2023-07-30T10:59:58;21.30;99.90
21244;DHT22;10780;50.942;4.028;2023-07-30T11:02:24;21.80;99.90
21244;DHT22;10780;50.942;4.028;2023-07-30T11:04:49;22.00;99.90
21244;DHT22;10780;50.942;4.028;2023-07-30T11:07:19;21.80;99.90
21244;DHT22;10780;50.942;4.028;2023-07-30T11:09:44;22.00;99.90
21244;DHT22;10780;50.942;4.028;2023-07-30T11:12:10;22.30;99.90
21244;DHT22;10780;50.942;4.028;2023-07-30T11:14:36;22.10;99.90
21244;DHT22;10780;50.942;4.028;2023-07-30T11:17:01;22.10;99.90
21244;DHT22;10780;50.942;4.028;2023-07-30T11:19:28;22.20;99.90
21244;DHT22;10780;50.942;4.028;2023-07-30T11:21:56;21.80;99.90
21244;DHT22;10780;50.942;4.028;2023-07-30T11:24:22;21.80;99.90
21244;DHT22;10780;50.942;4.028;2023-07-30T11:27:00;21.90;99.90
21244;DHT22;10780;50.942;4.028;2023-07-30T11:29:26;22.50;99.90
21244;DHT22;10780;50.942;4.028;2023-07-30T11:31:56;22.60;99.90
21244;DHT22;10780;50.942;4.028;2023-07-30T11:34:22;22.70;99.90
21244;DHT22;10780;50.942;4.028;2023-07-30T11:36:48;22.90;99.90
21244;DHT22;10780;50.942;4.028;2023-07-30T11:39:13;23.10;99.90
21244;DHT22;10780;50.942;4.028;2023-07-30T11:41:39;23.20;99.90
21244;DHT22;10780;50.942;4.028;2023-07-30T11:44:05;23.40;99.90
21244;DHT22;10780;50.942;4.028;2023-07-30T11:46:31;23.40;99.90
21244;DHT22;10780;50.942;4.028;2023-07-30T11:49:15;23.20;99.90
21244;DHT22;10780;50.942;4.028;2023-07-30T11:51:42;23.30;99.90
21244;DHT22;10780;50.942;4.028;2023-07-30T11:54:19;23.40;99.90
21244;DHT22;10780;50.942;4.028;2023-07-30T11:56:45;23.20;99.90
21244;DHT22;10780;50.942;4.028;2023-07-30T11:59:11;23.30;99.90
21244;DHT22;10780;50.942;4.028;2023-07-30T12:01:36;23.40;99.90
21244;DHT22;10780;50.942;4.028;2023-07-30T12:04:05;23.70;99.90
21244;DHT22;10780;50.942;4.028;2023-07-30T12:06:50;23.80;99.90
21244;DHT22;10780;50.942;4.028;2023-07-30T12:09:19;23.40;99.90
21244;DHT22;10780;50.942;4.028;2023-07-30T12:11:55;23.30;99.90
21244;DHT22;10780;50.942;4.028;2023-07-30T12:14:29;23.20;99.90
21244;DHT22;10780;50.942;4.028;2023-07-30T12:17:07;23.70;99.90
21244;DHT22;10780;50.942;4.028;2023-07-30T12:19:33;23.80;99.90
21244;DHT22;10780;50.942;4.028;2023-07-30T12:21:58;24.00;99.90
21244;DHT22;10780;50.942;4.028;2023-07-30T12:24:24;24.00;99.90
21244;DHT22;10780;50.942;4.028;2023-07-30T12:26:49;23.80;99.90
21244;DHT22;10780;50.942;4.028;2023-07-30T12:29:15;23.80;99.90
21244;DHT22;10780;50.942;4.028;2023-07-30T12:31:40;23.60;99.90
21244;DHT22;10780;50.942;4.028;2023-07-30T12:34:06;23.50;99.90
21244;DHT22;10780;50.942;4.028;2023-07-30T12:36:32;23.30;99.90
21244;DHT22;10780;50.942;4.028;2023-07-30T12:38:57;23.20;99.90
21244;DHT22;10780;50.942;4.028;2023-07-30T12:41:23;23.50;99.90
21244;DHT22;10780;50.942;4.028;2023-07-30T12:43:55;23.50;99.90
21244;DHT22;10780;50.942;4.028;2023-07-30T12:46:22;23.40;99.90
21244;DHT22;10780;50.942;4.028;2023-07-30T12:48:48;23.30;99.90
21244;DHT22;10780;50.942;4.028;2023-07-30T12:51:14;23.50;99.90
21244;DHT22;10780;50.942;4.028;2023-07-30T12:53:40;23.60;99.90
21244;DHT22;10780;50.942;4.028;2023-07-30T12:56:05;24.00;99.90
21244;DHT22;10780;50.942;4.028;2023-07-30T12:58:31;23.90;99.90
21244;DHT22;10780;50.942;4.028;2023-07-30T13:00:57;23.90;99.90
21244;DHT22;10780;50.942;4.028;2023-07-30T13:03:22;24.00;99.90
21244;DHT22;10780;50.942;4.028;2023-07-30T13:05:48;24.10;99.90
21244;DHT22;10780;50.942;4.028;2023-07-30T13:08:14;24.00;99.90
21244;DHT22;10780;50.942;4.028;2023-07-30T13:10:39;23.60;99.90
21244;DHT22;10780;50.942;4.028;2023-07-30T13:13:05;23.50;99.90
21244;DHT22;10780;50.942;4.028;2023-07-30T13:15:30;23.40;99.90
21244;DHT22;10780;50.942;4.028;2023-07-30T13:17:56;23.30;99.90
21244;DHT22;10780;50.942;4.028;2023-07-30T13:20:22;23.20;99.90
21244;DHT22;10780;50.942;4.028;2023-07-30T13:22:49;23.50;99.90
21244;DHT22;10780;50.942;4.028;2023-07-30T13:25:15;23.30;99.90
21244;DHT22;10780;50.942;4.028;2023-07-30T13:27:41;23.30;99.90
21244;DHT22;10780;50.942;4.028;2023-07-30T13:30:07;23.30;99.90
21244;DHT22;10780;50.942;4.028;2023-07-30T13:32:32;23.50;99.90
21244;DHT22;10780;50.942;4.028;2023-07-30T13:34:58;23.40;99.90
21244;DHT22;10780;50.942;4.028;2023-07-30T13:37:24;23.40;99.90
21244;DHT22;10780;50.942;4.028;2023-07-30T13:39:49;23.60;99.90
21244;DHT22;10780;50.942;4.028;2023-07-30T13:42:15;23.80;99.90
21244;DHT22;10780;50.942;4.028;2023-07-30T13:44:40;24.10;99.90
21244;DHT22;10780;50.942;4.028;2023-07-30T13:47:07;24.20;99.90
21244;DHT22;10780;50.942;4.028;2023-07-30T13:49:33;24.30;99.90
21244;DHT22;10780;50.942;4.028;2023-07-30T13:51:58;24.00;99.90
21244;DHT22;10780;50.942;4.028;2023-07-30T13:54:24;23.80;99.90
21244;DHT22;10780;50.942;4.028;2023-07-30T13:56:50;24.00;99.90
21244;DHT22;10780;50.942;4.028;2023-07-30T13:59:15;24.40;99.90
21244;DHT22;10780;50.942;4.028;2023-07-30T14:01:41;24.50;99.90
21244;DHT22;10780;50.942;4.028;2023-07-30T14:04:06;24.20;99.90
21244;DHT22;10780;50.942;4.028;2023-07-30T14:06:32;23.80;99.90
21244;DHT22;10780;50.942;4.028;2023-07-30T14:08:58;23.80;99.90
21244;DHT22;10780;50.942;4.028;2023-07-30T14:11:26;23.80;99.90
21244;DHT22;10780;50.942;4.028;2023-07-30T14:13:51;24.20;99.90
21244;DHT22;10780;50.942;4.028;2023-07-30T14:16:17;24.50;99.90
21244;DHT22;10780;50.942;4.028;2023-07-30T14:18:43;24.40;99.90
21244;DHT22;10780;50.942;4.028;2023-07-30T14:21:08;24.30;99.90
21244;DHT22;10780;50.942;4.028;2023-07-30T14:23:34;24.40;99.90
21244;DHT22;10780;50.942;4.028;2023-07-30T14:25:59;24.30;99.90
21244;DHT22;10780;50.942;4.028;2023-07-30T14:28:25;24.40;99.90
21244;DHT22;10780;50.942;4.028;2023-07-30T14:30:51;24.50;99.90
21244;DHT22;10780;50.942;4.028;2023-07-30T14:33:16;24.60;99.90
21244;DHT22;10780;50.942;4.028;2023-07-30T14:35:42;24.30;99.90
21244;DHT22;10780;50.942;4.028;2023-07-30T14:38:08;23.90;99.90
21244;DHT22;10780;50.942;4.028;2023-07-30T14:40:35;23.60;99.90
21244;DHT22;10780;50.942;4.028;2023-07-30T14:43:00;23.60;99.90
21244;DHT22;10780;50.942;4.028;2023-07-30T14:45:26;23.50;99.90
21244;DHT22;10780;50.942;4.028;2023-07-30T14:47:51;23.30;99.90
21244;DHT22;10780;50.942;4.028;2023-07-30T14:50:17;23.20;99.90
21244;DHT22;10780;50.942;4.028;2023-07-30T14:52:43;22.80;99.90
21244;DHT22;10780;50.942;4.028;2023-07-30T14:55:08;22.10;99.90
21244;DHT22;10780;50.942;4.028;2023-07-30T14:57:34;21.50;99.90
21244;DHT22;10780;50.942;4.028;2023-07-30T15:00:00;21.20;99.90
21244;DHT22;10780;50.942;4.028;2023-07-30T15:02:26;21.00;99.90
21244;DHT22;10780;50.942;4.028;2023-07-30T15:04:53;21.00;99.90
21244;DHT22;10780;50.942;4.028;2023-07-30T15:07:19;21.00;99.90
21244;DHT22;10780;50.942;4.028;2023-07-30T15:09:44;20.90;99.90
21244;DHT22;10780;50.942;4.028;2023-07-30T15:12:12;20.90;99.90
21244;DHT22;10780;50.942;4.028;2023-07-30T15:14:37;20.70;99.90
21244;DHT22;10780;50.942;4.028;2023-07-30T15:17:04;20.70;99.90
21244;DHT22;10780;50.942;4.028;2023-07-30T15:19:30;20.70;99.90
21244;DHT22;10780;50.942;4.028;2023-07-30T15:21:56;20.80;99.90
21244;DHT22;10780;50.942;4.028;2023-07-30T15:24:22;21.00;99.90
21244;DHT22;10780;50.942;4.028;2023-07-30T15:26:47;20.90;99.90
21244;DHT22;10780;50.942;4.028;2023-07-30T15:29:13;20.80;99.90